»·PEaware :: N326MC KWHP-KBFL

N326MC :: KWHP-KBFL

FLIGHT INFORMATION

Flight Status: Arrived
Operator: Privately registered:
United States
More flights under this callsign
Pilot: Anonymous 5456 (5456)
Aircraft: Unknown
(P28U)
More flights by this aircraft type
Origin: KWHP Whiteman
United States
Destination: KBFL Meadows
United States
More flights between these airports :: More routes between these airports
Route: +VNY GMN FASTO2
File this flight plan on PilotEdge
Remarks:
Altitude:
(Current/Filed)
8,000ft
Speed:
(Current/Filed)
180kts
Departed: 12-Jan-18 10:44 AM
Arrived: 12-Jan-18 11:28 AM
Distance/Time
Traveled:
77nm/0:44
Distance/Time
To Go:
Arrived

Flight Plot

Page will automatically refresh every two minutes.

Flight plan parsing failed; only flown route is shown


Map Options




Map Legend


Flown Route
Filed Route
Departure Airport
Arrival Airport
Navaid (VOR, NDB)
Fix

Horizontal Profiles

Position Reports

Time Latitude Longitude Heading Altitude Ground
Speed
12-Jan-18 10:32 34.260725 -118.411720 319 1005ft 0kts
12-Jan-18 10:33 34.260725 -118.411720 319 1005ft 0kts
12-Jan-18 10:34 34.260725 -118.411720 319 1005ft 0kts
12-Jan-18 10:35 34.260725 -118.411720 319 1005ft 0kts
12-Jan-18 10:36 34.260725 -118.411720 319 1005ft 0kts
12-Jan-18 10:37 34.260725 -118.411720 319 1005ft 0kts
12-Jan-18 10:38 34.260725 -118.411720 319 1005ft 0kts
12-Jan-18 10:39 34.260725 -118.411720 319 1005ft 0kts
12-Jan-18 10:40 34.260725 -118.411720 319 1005ft 0kts
12-Jan-18 10:41 34.260725 -118.411720 319 1005ft 0kts
12-Jan-18 10:42 34.260725 -118.411720 319 1005ft 0kts
12-Jan-18 10:43 34.260725 -118.411720 319 1005ft 0kts
12-Jan-18 10:44 34.260725 -118.411720 319 1005ft 0kts
12-Jan-18 10:45 34.260494 -118.412249 229 1005ft 5kts
12-Jan-18 10:46 34.259028 -118.412525 137 1005ft 11kts
12-Jan-18 10:47 34.257082 -118.410488 139 1005ft 11kts
12-Jan-18 10:48 34.255580 -118.408918 151 1005ft 0kts
12-Jan-18 10:49 34.255510 -118.408881 163 1005ft 3kts
12-Jan-18 10:50 34.259932 -118.414190 319 1066ft 76kts
12-Jan-18 10:51 34.268861 -118.434316 272 1897ft 82kts
12-Jan-18 10:52 34.268774 -118.462958 271 2957ft 89kts
12-Jan-18 10:53 34.269061 -118.492269 273 4005ft 88kts
12-Jan-18 10:54 34.266868 -118.520181 243 5021ft 90kts
12-Jan-18 10:55 34.281224 -118.537202 334 5988ft 77kts
12-Jan-18 10:56 34.300335 -118.548610 334 6914ft 77kts
12-Jan-18 10:57 34.319047 -118.560122 333 7860ft 77kts
12-Jan-18 10:58 34.337782 -118.571672 333 8867ft 79kts
12-Jan-18 10:59 34.356539 -118.583251 332 9929ft 77kts
12-Jan-18 11:00 34.383973 -118.599809 333 9936ft 131kts
12-Jan-18 11:01 34.416475 -118.619780 332 9934ft 136kts
12-Jan-18 11:02 34.449953 -118.640683 332 9934ft 137kts
12-Jan-18 11:03 34.479305 -118.658907 332 9936ft 137kts
12-Jan-18 11:04 34.512470 -118.679472 332 9935ft 137kts
12-Jan-18 11:05 34.546611 -118.700650 332 9899ft 138kts
12-Jan-18 11:06 34.574948 -118.718241 332 9890ft 138kts
12-Jan-18 11:07 34.611941 -118.741221 332 9848ft 138kts
12-Jan-18 11:08 34.639711 -118.758471 331 9922ft 131kts
12-Jan-18 11:09 34.672340 -118.778809 331 10006ft 135kts
12-Jan-18 11:10 34.705564 -118.799508 330 10043ft 135kts
12-Jan-18 11:11 34.738631 -118.820136 330 10053ft 137kts
12-Jan-18 11:12 34.772176 -118.841074 330 10045ft 137kts
12-Jan-18 11:13 34.806012 -118.860347 352 10037ft 142kts
12-Jan-18 11:14 34.844733 -118.860864 354 10054ft 142kts
12-Jan-18 11:15 34.882539 -118.860939 354 10064ft 143kts
12-Jan-18 11:16 34.921366 -118.860985 354 10064ft 144kts
12-Jan-18 11:17 34.960683 -118.860993 355 10064ft 145kts
12-Jan-18 11:18 35.000551 -118.861139 356 10064ft 146kts
12-Jan-18 11:19 35.040926 -118.861175 357 10064ft 148kts
12-Jan-18 11:20 35.081774 -118.861168 356 10066ft 149kts
12-Jan-18 11:21 35.121412 -118.861153 357 10069ft 150kts
12-Jan-18 11:22 35.153985 -118.892212 311 8929ft 162kts
12-Jan-18 11:23 35.186417 -118.934481 312 6444ft 188kts
12-Jan-18 11:24 35.222582 -118.964680 32 4561ft 162kts
12-Jan-18 11:25 35.254101 -118.933802 41 4072ft 133kts
12-Jan-18 11:26 35.283683 -118.905375 22 3105ft 140kts
12-Jan-18 11:27 35.318132 -118.917001 333 3177ft 126kts
12-Jan-18 11:28 35.345081 -118.944262 302 3052ft 118kts
12-Jan-18 11:29 35.361308 -118.971486 325 2478ft 96kts
12-Jan-18 11:30 35.380652 -118.991418 313 1995ft 89kts
12-Jan-18 11:31 35.397379 -119.012336 312 1527ft 88kts
12-Jan-18 11:32 35.413994 -119.032523 315 1063ft 82kts
12-Jan-18 11:33 35.429374 -119.050733 313 619ft 75kts
12-Jan-18 11:34 35.436170 -119.056766 131 509ft 11kts
12-Jan-18 11:35 35.433816 -119.053949 143 509ft 12kts
12-Jan-18 11:36 35.430904 -119.050418 134 509ft 16kts
12-Jan-18 11:37 35.429783 -119.047205 116 509ft 9kts
12-Jan-18 11:38 35.429427 -119.046574 135 509ft 0kts
12-Jan-18 11:39 35.429427 -119.046574 135 509ft 0kts
12-Jan-18 11:40 35.429427 -119.046574 135 509ft 0kts
12-Jan-18 11:41 35.429427 -119.046574 135 509ft 0kts
12-Jan-18 11:42 35.429427 -119.046574 135 509ft 0kts
12-Jan-18 11:43 35.429427 -119.046574 135 509ft 0kts

Navigation Log

Ident Type
Flight plan parsing failed, navigation log unavailable